sensor_id;sensor_type;location;lat;lon;timestamp;P1;durP1;ratioP1;P2;durP2;ratioP2
47239;SDS011;32978;53.586;10.052;2023-02-07T00:02:44;24.23;;;21.70;;
47239;SDS011;32978;53.586;10.052;2023-02-07T00:07:42;23.90;;;21.52;;
47239;SDS011;32978;53.586;10.052;2023-02-07T00:12:38;25.98;;;22.83;;
47239;SDS011;32978;53.586;10.052;2023-02-07T00:17:35;25.83;;;23.42;;
47239;SDS011;32978;53.586;10.052;2023-02-07T00:22:31;25.58;;;23.05;;
47239;SDS011;32978;53.586;10.052;2023-02-07T00:27:28;28.25;;;25.38;;
47239;SDS011;32978;53.586;10.052;2023-02-07T00:32:24;27.70;;;25.02;;
47239;SDS011;32978;53.586;10.052;2023-02-07T00:37:21;26.98;;;24.58;;
47239;SDS011;32978;53.586;10.052;2023-02-07T00:42:17;25.63;;;23.00;;
47239;SDS011;32978;53.586;10.052;2023-02-07T00:47:14;26.95;;;24.52;;
47239;SDS011;32978;53.586;10.052;2023-02-07T00:52:11;27.65;;;25.15;;
47239;SDS011;32978;53.586;10.052;2023-02-07T00:57:07;27.83;;;24.83;;
47239;SDS011;32978;53.586;10.052;2023-02-07T01:02:04;27.05;;;24.70;;
47239;SDS011;32978;53.586;10.052;2023-02-07T01:07:00;27.33;;;24.65;;
47239;SDS011;32978;53.586;10.052;2023-02-07T01:11:57;26.27;;;23.88;;
47239;SDS011;32978;53.586;10.052;2023-02-07T01:16:53;27.50;;;25.10;;
47239;SDS011;32978;53.586;10.052;2023-02-07T01:21:50;28.88;;;26.33;;
47239;SDS011;32978;53.586;10.052;2023-02-07T01:26:46;27.02;;;24.73;;
47239;SDS011;32978;53.586;10.052;2023-02-07T01:31:42;28.48;;;25.67;;
47239;SDS011;32978;53.586;10.052;2023-02-07T01:36:39;25.95;;;23.58;;
47239;SDS011;32978;53.586;10.052;2023-02-07T01:41:36;27.42;;;24.83;;
47239;SDS011;32978;53.586;10.052;2023-02-07T01:46:33;27.70;;;25.13;;
47239;SDS011;32978;53.586;10.052;2023-02-07T01:51:31;26.85;;;24.48;;
47239;SDS011;32978;53.586;10.052;2023-02-07T01:56:28;27.60;;;25.23;;
47239;SDS011;32978;53.586;10.052;2023-02-07T02:01:27;28.10;;;25.40;;
47239;SDS011;32978;53.586;10.052;2023-02-07T02:06:24;29.52;;;26.73;;
47239;SDS011;32978;53.586;10.052;2023-02-07T02:16:43;30.45;;;27.52;;
47239;SDS011;32978;53.586;10.052;2023-02-07T02:22:16;30.40;;;27.77;;
47239;SDS011;32978;53.586;10.052;2023-02-07T02:27:30;31.45;;;28.73;;
47239;SDS011;32978;53.586;10.052;2023-02-07T02:32:48;29.38;;;26.77;;
47239;SDS011;32978;53.586;10.052;2023-02-07T02:48:40;27.25;;;24.75;;
47239;SDS011;32978;53.586;10.052;2023-02-07T02:53:39;27.60;;;24.92;;
47239;SDS011;32978;53.586;10.052;2023-02-07T02:58:46;27.05;;;23.50;;
47239;SDS011;32978;53.586;10.052;2023-02-07T03:14:09;27.45;;;24.95;;
47239;SDS011;32978;53.586;10.052;2023-02-07T03:24:27;25.55;;;23.02;;
47239;SDS011;32978;53.586;10.052;2023-02-07T03:29:27;26.77;;;24.23;;
47239;SDS011;32978;53.586;10.052;2023-02-07T03:34:28;27.85;;;25.42;;
47239;SDS011;32978;53.586;10.052;2023-02-07T03:39:26;27.15;;;24.75;;
47239;SDS011;32978;53.586;10.052;2023-02-07T03:44:23;29.52;;;26.70;;
47239;SDS011;32978;53.586;10.052;2023-02-07T03:49:22;28.40;;;25.73;;
47239;SDS011;32978;53.586;10.052;2023-02-07T03:54:19;30.83;;;27.88;;
47239;SDS011;32978;53.586;10.052;2023-02-07T03:59:15;31.20;;;28.52;;
47239;SDS011;32978;53.586;10.052;2023-02-07T04:04:12;31.13;;;28.52;;
47239;SDS011;32978;53.586;10.052;2023-02-07T04:09:08;30.15;;;27.38;;
47239;SDS011;32978;53.586;10.052;2023-02-07T04:14:07;30.17;;;27.52;;
47239;SDS011;32978;53.586;10.052;2023-02-07T04:19:03;30.30;;;27.52;;
47239;SDS011;32978;53.586;10.052;2023-02-07T04:23:59;30.60;;;28.00;;
47239;SDS011;32978;53.586;10.052;2023-02-07T04:28:56;31.40;;;28.60;;
47239;SDS011;32978;53.586;10.052;2023-02-07T04:33:53;28.45;;;25.70;;
47239;SDS011;32978;53.586;10.052;2023-02-07T04:38:49;27.58;;;25.02;;
47239;SDS011;32978;53.586;10.052;2023-02-07T04:43:46;28.73;;;25.95;;
47239;SDS011;32978;53.586;10.052;2023-02-07T04:48:42;28.52;;;26.00;;
47239;SDS011;32978;53.586;10.052;2023-02-07T04:53:38;28.75;;;26.08;;
47239;SDS011;32978;53.586;10.052;2023-02-07T04:58:35;26.58;;;23.77;;
47239;SDS011;32978;53.586;10.052;2023-02-07T05:03:32;27.92;;;25.40;;
47239;SDS011;32978;53.586;10.052;2023-02-07T05:08:28;30.80;;;28.00;;
47239;SDS011;32978;53.586;10.052;2023-02-07T05:13:25;29.67;;;27.08;;
47239;SDS011;32978;53.586;10.052;2023-02-07T05:18:21;30.23;;;27.42;;
47239;SDS011;32978;53.586;10.052;2023-02-07T05:23:18;29.15;;;26.45;;
47239;SDS011;32978;53.586;10.052;2023-02-07T05:28:15;29.25;;;26.17;;
47239;SDS011;32978;53.586;10.052;2023-02-07T05:33:11;30.00;;;27.27;;
47239;SDS011;32978;53.586;10.052;2023-02-07T05:38:09;30.23;;;27.52;;
47239;SDS011;32978;53.586;10.052;2023-02-07T05:43:07;29.95;;;27.23;;
47239;SDS011;32978;53.586;10.052;2023-02-07T05:48:04;29.10;;;26.38;;
47239;SDS011;32978;53.586;10.052;2023-02-07T05:53:01;30.10;;;27.15;;
47239;SDS011;32978;53.586;10.052;2023-02-07T05:57:57;29.55;;;26.80;;
47239;SDS011;32978;53.586;10.052;2023-02-07T06:02:54;28.35;;;25.67;;
47239;SDS011;32978;53.586;10.052;2023-02-07T06:07:51;28.48;;;25.65;;
47239;SDS011;32978;53.586;10.052;2023-02-07T06:12:47;29.40;;;26.60;;
47239;SDS011;32978;53.586;10.052;2023-02-07T06:17:44;29.48;;;26.77;;
47239;SDS011;32978;53.586;10.052;2023-02-07T06:22:40;29.80;;;27.08;;
47239;SDS011;32978;53.586;10.052;2023-02-07T06:27:37;29.45;;;26.75;;
47239;SDS011;32978;53.586;10.052;2023-02-07T06:32:34;29.05;;;26.42;;
47239;SDS011;32978;53.586;10.052;2023-02-07T06:37:31;29.95;;;27.25;;
47239;SDS011;32978;53.586;10.052;2023-02-07T06:42:27;29.65;;;26.55;;
47239;SDS011;32978;53.586;10.052;2023-02-07T06:47:24;29.17;;;26.42;;
47239;SDS011;32978;53.586;10.052;2023-02-07T06:52:21;30.58;;;27.48;;
47239;SDS011;32978;53.586;10.052;2023-02-07T06:57:17;29.80;;;26.65;;
47239;SDS011;32978;53.586;10.052;2023-02-07T07:02:13;29.00;;;26.38;;
47239;SDS011;32978;53.586;10.052;2023-02-07T07:07:10;31.15;;;28.08;;
47239;SDS011;32978;53.586;10.052;2023-02-07T07:12:07;31.35;;;28.08;;
47239;SDS011;32978;53.586;10.052;2023-02-07T07:17:03;32.25;;;28.85;;
47239;SDS011;32978;53.586;10.052;2023-02-07T07:22:00;29.58;;;26.60;;
47239;SDS011;32978;53.586;10.052;2023-02-07T07:26:56;31.73;;;28.73;;
47239;SDS011;32978;53.586;10.052;2023-02-07T07:31:53;32.80;;;29.27;;
47239;SDS011;32978;53.586;10.052;2023-02-07T07:36:49;30.55;;;27.40;;
47239;SDS011;32978;53.586;10.052;2023-02-07T07:41:46;31.92;;;28.58;;
47239;SDS011;32978;53.586;10.052;2023-02-07T07:46:43;31.65;;;28.25;;
47239;SDS011;32978;53.586;10.052;2023-02-07T07:51:39;32.05;;;28.85;;
47239;SDS011;32978;53.586;10.052;2023-02-07T07:56:36;32.17;;;28.88;;
47239;SDS011;32978;53.586;10.052;2023-02-07T08:01:32;30.85;;;27.52;;
47239;SDS011;32978;53.586;10.052;2023-02-07T08:06:29;32.95;;;29.77;;
47239;SDS011;32978;53.586;10.052;2023-02-07T08:11:27;34.55;;;31.15;;
47239;SDS011;32978;53.586;10.052;2023-02-07T08:16:24;36.05;;;32.47;;
47239;SDS011;32978;53.586;10.052;2023-02-07T08:21:21;34.60;;;31.10;;
47239;SDS011;32978;53.586;10.052;2023-02-07T08:26:20;33.97;;;30.38;;
47239;SDS011;32978;53.586;10.052;2023-02-07T08:31:17;31.27;;;28.08;;
47239;SDS011;32978;53.586;10.052;2023-02-07T08:36:14;33.55;;;30.13;;
47239;SDS011;32978;53.586;10.052;2023-02-07T08:41:10;33.45;;;30.08;;
47239;SDS011;32978;53.586;10.052;2023-02-07T08:46:07;34.80;;;31.17;;
47239;SDS011;32978;53.586;10.052;2023-02-07T08:51:05;35.65;;;31.83;;
47239;SDS011;32978;53.586;10.052;2023-02-07T08:56:03;35.08;;;31.42;;
47239;SDS011;32978;53.586;10.052;2023-02-07T09:00:59;33.45;;;30.05;;
47239;SDS011;32978;53.586;10.052;2023-02-07T09:05:57;32.97;;;29.45;;
47239;SDS011;32978;53.586;10.052;2023-02-07T09:10:54;33.33;;;29.92;;
47239;SDS011;32978;53.586;10.052;2023-02-07T09:15:54;32.72;;;29.20;;
47239;SDS011;32978;53.586;10.052;2023-02-07T09:20:51;31.92;;;28.40;;
47239;SDS011;32978;53.586;10.052;2023-02-07T09:25:49;35.13;;;30.08;;
47239;SDS011;32978;53.586;10.052;2023-02-07T09:30:47;29.92;;;26.17;;
47239;SDS011;32978;53.586;10.052;2023-02-07T09:35:45;32.00;;;26.27;;
47239;SDS011;32978;53.586;10.052;2023-02-07T09:40:42;29.98;;;25.40;;
47239;SDS011;32978;53.586;10.052;2023-02-07T09:45:42;26.75;;;22.70;;
47239;SDS011;32978;53.586;10.052;2023-02-07T10:00:51;31.50;;;24.95;;
47239;SDS011;32978;53.586;10.052;2023-02-07T10:06:02;35.22;;;24.77;;
47239;SDS011;32978;53.586;10.052;2023-02-07T10:22:40;32.05;;;21.80;;
47239;SDS011;32978;53.586;10.052;2023-02-07T10:28:08;35.35;;;21.98;;
47239;SDS011;32978;53.586;10.052;2023-02-07T10:33:16;28.63;;;19.48;;
47239;SDS011;32978;53.586;10.052;2023-02-07T10:44:04;32.53;;;21.30;;
47239;SDS011;32978;53.586;10.052;2023-02-07T10:49:02;35.72;;;20.70;;
47239;SDS011;32978;53.586;10.052;2023-02-07T10:54:06;35.20;;;22.17;;
47239;SDS011;32978;53.586;10.052;2023-02-07T10:59:04;35.00;;;22.08;;
47239;SDS011;32978;53.586;10.052;2023-02-07T11:04:01;34.55;;;22.15;;
47239;SDS011;32978;53.586;10.052;2023-02-07T11:09:11;34.65;;;23.42;;
47239;SDS011;32978;53.586;10.052;2023-02-07T11:14:18;34.67;;;22.45;;
47239;SDS011;32978;53.586;10.052;2023-02-07T11:19:24;33.58;;;22.98;;
47239;SDS011;32978;53.586;10.052;2023-02-07T11:24:27;34.33;;;22.85;;
47239;SDS011;32978;53.586;10.052;2023-02-07T11:29:29;35.60;;;24.52;;
47239;SDS011;32978;53.586;10.052;2023-02-07T11:39:42;36.70;;;22.60;;
47239;SDS011;32978;53.586;10.052;2023-02-07T11:44:44;33.85;;;22.77;;
47239;SDS011;32978;53.586;10.052;2023-02-07T11:49:44;35.75;;;24.92;;
47239;SDS011;32978;53.586;10.052;2023-02-07T11:54:52;38.40;;;24.75;;
47239;SDS011;32978;53.586;10.052;2023-02-07T12:10:31;34.10;;;24.35;;
47239;SDS011;32978;53.586;10.052;2023-02-07T12:15:35;39.97;;;25.50;;
47239;SDS011;32978;53.586;10.052;2023-02-07T12:31:24;32.17;;;22.17;;
47239;SDS011;32978;53.586;10.052;2023-02-07T12:36:32;30.48;;;20.63;;
47239;SDS011;32978;53.586;10.052;2023-02-07T12:41:43;34.72;;;21.80;;
47239;SDS011;32978;53.586;10.052;2023-02-07T12:52:22;30.27;;;21.27;;
47239;SDS011;32978;53.586;10.052;2023-02-07T12:57:38;31.92;;;22.33;;
47239;SDS011;32978;53.586;10.052;2023-02-07T13:13:19;33.15;;;22.67;;
47239;SDS011;32978;53.586;10.052;2023-02-07T13:23:33;32.47;;;22.75;;
47239;SDS011;32978;53.586;10.052;2023-02-07T13:28:55;31.92;;;21.52;;
47239;SDS011;32978;53.586;10.052;2023-02-07T13:33:51;32.35;;;22.48;;
47239;SDS011;32978;53.586;10.052;2023-02-07T13:39:01;30.98;;;21.90;;
47239;SDS011;32978;53.586;10.052;2023-02-07T13:49:28;30.75;;;22.25;;
47239;SDS011;32978;53.586;10.052;2023-02-07T13:54:51;28.88;;;20.85;;
47239;SDS011;32978;53.586;10.052;2023-02-07T14:05:09;29.92;;;20.75;;
47239;SDS011;32978;53.586;10.052;2023-02-07T14:10:32;25.50;;;19.65;;
47239;SDS011;32978;53.586;10.052;2023-02-07T14:35:33;25.88;;;19.60;;
47239;SDS011;32978;53.586;10.052;2023-02-07T14:40:33;27.05;;;19.48;;
47239;SDS011;32978;53.586;10.052;2023-02-07T14:46:46;23.30;;;18.25;;
47239;SDS011;32978;53.586;10.052;2023-02-07T14:56:27;26.25;;;19.65;;
47239;SDS011;32978;53.586;10.052;2023-02-07T15:01:35;25.15;;;18.25;;
47239;SDS011;32978;53.586;10.052;2023-02-07T15:06:35;27.17;;;20.00;;
47239;SDS011;32978;53.586;10.052;2023-02-07T15:11:35;23.20;;;17.33;;
47239;SDS011;32978;53.586;10.052;2023-02-07T15:16:32;23.15;;;17.45;;
47239;SDS011;32978;53.586;10.052;2023-02-07T15:21:40;22.20;;;16.73;;
47239;SDS011;32978;53.586;10.052;2023-02-07T15:26:38;24.75;;;17.85;;
47239;SDS011;32978;53.586;10.052;2023-02-07T15:31:39;24.00;;;17.38;;
47239;SDS011;32978;53.586;10.052;2023-02-07T15:36:38;24.13;;;17.90;;
47239;SDS011;32978;53.586;10.052;2023-02-07T15:41:37;22.85;;;17.63;;
47239;SDS011;32978;53.586;10.052;2023-02-07T15:46:47;24.60;;;17.92;;
47239;SDS011;32978;53.586;10.052;2023-02-07T15:51:48;26.73;;;19.42;;
47239;SDS011;32978;53.586;10.052;2023-02-07T15:56:47;25.77;;;18.67;;
47239;SDS011;32978;53.586;10.052;2023-02-07T16:01:52;26.77;;;19.30;;
47239;SDS011;32978;53.586;10.052;2023-02-07T16:07:10;29.98;;;21.08;;
47239;SDS011;32978;53.586;10.052;2023-02-07T16:12:21;26.67;;;19.45;;
47239;SDS011;32978;53.586;10.052;2023-02-07T16:17:38;29.40;;;19.98;;
47239;SDS011;32978;53.586;10.052;2023-02-07T16:22:37;29.83;;;21.33;;
47239;SDS011;32978;53.586;10.052;2023-02-07T16:27:34;26.95;;;20.35;;
47239;SDS011;32978;53.586;10.052;2023-02-07T16:32:34;33.58;;;22.90;;
47239;SDS011;32978;53.586;10.052;2023-02-07T16:37:31;28.63;;;22.38;;
47239;SDS011;32978;53.586;10.052;2023-02-07T16:42:27;30.20;;;23.85;;
47239;SDS011;32978;53.586;10.052;2023-02-07T16:47:24;29.85;;;23.38;;
47239;SDS011;32978;53.586;10.052;2023-02-07T16:52:20;31.52;;;22.38;;
47239;SDS011;32978;53.586;10.052;2023-02-07T16:57:16;33.92;;;22.70;;
47239;SDS011;32978;53.586;10.052;2023-02-07T17:02:13;32.90;;;24.00;;
47239;SDS011;32978;53.586;10.052;2023-02-07T17:07:11;29.40;;;23.73;;
47239;SDS011;32978;53.586;10.052;2023-02-07T17:12:08;29.60;;;22.83;;
47239;SDS011;32978;53.586;10.052;2023-02-07T17:17:04;32.15;;;25.42;;
47239;SDS011;32978;53.586;10.052;2023-02-07T17:22:01;33.55;;;25.75;;
47239;SDS011;32978;53.586;10.052;2023-02-07T17:26:58;32.45;;;24.23;;
47239;SDS011;32978;53.586;10.052;2023-02-07T17:31:54;35.33;;;26.70;;
47239;SDS011;32978;53.586;10.052;2023-02-07T17:36:51;37.33;;;26.45;;
47239;SDS011;32978;53.586;10.052;2023-02-07T17:41:47;34.55;;;26.33;;
47239;SDS011;32978;53.586;10.052;2023-02-07T17:46:44;34.60;;;25.80;;
47239;SDS011;32978;53.586;10.052;2023-02-07T17:51:40;36.72;;;27.73;;
47239;SDS011;32978;53.586;10.052;2023-02-07T17:56:37;39.45;;;27.83;;
47239;SDS011;32978;53.586;10.052;2023-02-07T18:01:33;40.58;;;27.90;;
47239;SDS011;32978;53.586;10.052;2023-02-07T18:06:30;39.10;;;29.70;;
47239;SDS011;32978;53.586;10.052;2023-02-07T18:11:26;36.17;;;28.33;;
47239;SDS011;32978;53.586;10.052;2023-02-07T18:16:24;35.50;;;26.70;;
47239;SDS011;32978;53.586;10.052;2023-02-07T18:21:21;40.50;;;30.48;;
47239;SDS011;32978;53.586;10.052;2023-02-07T18:26:18;39.92;;;29.35;;
47239;SDS011;32978;53.586;10.052;2023-02-07T18:31:18;38.00;;;29.13;;
47239;SDS011;32978;53.586;10.052;2023-02-07T18:36:17;43.28;;;31.27;;
47239;SDS011;32978;53.586;10.052;2023-02-07T18:41:16;44.85;;;31.50;;
47239;SDS011;32978;53.586;10.052;2023-02-07T18:46:18;44.45;;;32.95;;
47239;SDS011;32978;53.586;10.052;2023-02-07T18:51:16;41.58;;;31.60;;
47239;SDS011;32978;53.586;10.052;2023-02-07T18:56:14;41.90;;;31.00;;
47239;SDS011;32978;53.586;10.052;2023-02-07T19:01:13;42.50;;;31.08;;
47239;SDS011;32978;53.586;10.052;2023-02-07T19:06:14;42.63;;;31.47;;
47239;SDS011;32978;53.586;10.052;2023-02-07T19:11:11;44.30;;;29.73;;
47239;SDS011;32978;53.586;10.052;2023-02-07T19:16:16;37.35;;;28.50;;
47239;SDS011;32978;53.586;10.052;2023-02-07T19:21:15;42.20;;;31.65;;
47239;SDS011;32978;53.586;10.052;2023-02-07T19:26:15;41.57;;;29.70;;
47239;SDS011;32978;53.586;10.052;2023-02-07T19:31:13;45.22;;;29.80;;
47239;SDS011;32978;53.586;10.052;2023-02-07T19:36:13;35.53;;;28.90;;
47239;SDS011;32978;53.586;10.052;2023-02-07T19:41:11;38.40;;;28.55;;
47239;SDS011;32978;53.586;10.052;2023-02-07T19:46:07;34.58;;;27.33;;
47239;SDS011;32978;53.586;10.052;2023-02-07T19:51:04;38.75;;;29.15;;
47239;SDS011;32978;53.586;10.052;2023-02-07T19:56:05;36.20;;;28.13;;
47239;SDS011;32978;53.586;10.052;2023-02-07T20:01:04;39.00;;;28.33;;
47239;SDS011;32978;53.586;10.052;2023-02-07T20:06:01;39.25;;;28.27;;
47239;SDS011;32978;53.586;10.052;2023-02-07T20:11:02;35.05;;;26.85;;
47239;SDS011;32978;53.586;10.052;2023-02-07T20:16:06;33.55;;;27.10;;
47239;SDS011;32978;53.586;10.052;2023-02-07T20:21:09;34.60;;;27.02;;
47239;SDS011;32978;53.586;10.052;2023-02-07T20:26:09;34.05;;;25.23;;
47239;SDS011;32978;53.586;10.052;2023-02-07T20:31:07;32.33;;;26.38;;
47239;SDS011;32978;53.586;10.052;2023-02-07T20:36:05;36.47;;;28.30;;
47239;SDS011;32978;53.586;10.052;2023-02-07T20:41:07;37.75;;;28.40;;
47239;SDS011;32978;53.586;10.052;2023-02-07T20:46:12;37.22;;;27.10;;
47239;SDS011;32978;53.586;10.052;2023-02-07T20:51:11;36.88;;;28.05;;
47239;SDS011;32978;53.586;10.052;2023-02-07T20:56:11;36.50;;;27.17;;
47239;SDS011;32978;53.586;10.052;2023-02-07T21:01:15;33.58;;;26.67;;
47239;SDS011;32978;53.586;10.052;2023-02-07T21:06:13;37.10;;;27.35;;
47239;SDS011;32978;53.586;10.052;2023-02-07T21:11:10;36.75;;;27.90;;
47239;SDS011;32978;53.586;10.052;2023-02-07T21:16:07;37.83;;;27.63;;
47239;SDS011;32978;53.586;10.052;2023-02-07T21:21:04;39.15;;;29.70;;
47239;SDS011;32978;53.586;10.052;2023-02-07T21:26:04;35.92;;;27.30;;
47239;SDS011;32978;53.586;10.052;2023-02-07T21:31:02;31.58;;;25.95;;
47239;SDS011;32978;53.586;10.052;2023-02-07T21:36:10;35.10;;;28.65;;
47239;SDS011;32978;53.586;10.052;2023-02-07T21:41:09;40.88;;;28.40;;
47239;SDS011;32978;53.586;10.052;2023-02-07T21:46:10;41.88;;;28.83;;
47239;SDS011;32978;53.586;10.052;2023-02-07T21:51:09;33.15;;;27.45;;
47239;SDS011;32978;53.586;10.052;2023-02-07T21:56:09;34.28;;;28.80;;
47239;SDS011;32978;53.586;10.052;2023-02-07T22:01:08;39.03;;;28.08;;
47239;SDS011;32978;53.586;10.052;2023-02-07T22:06:06;38.60;;;29.40;;
47239;SDS011;32978;53.586;10.052;2023-02-07T22:11:05;35.70;;;28.08;;
47239;SDS011;32978;53.586;10.052;2023-02-07T22:16:08;43.08;;;27.85;;
47239;SDS011;32978;53.586;10.052;2023-02-07T22:21:08;38.83;;;28.47;;
47239;SDS011;32978;53.586;10.052;2023-02-07T22:26:08;33.97;;;27.25;;
47239;SDS011;32978;53.586;10.052;2023-02-07T22:31:09;37.05;;;28.35;;
47239;SDS011;32978;53.586;10.052;2023-02-07T22:36:14;32.58;;;27.00;;
47239;SDS011;32978;53.586;10.052;2023-02-07T22:41:12;33.33;;;29.38;;
47239;SDS011;32978;53.586;10.052;2023-02-07T22:46:13;34.97;;;29.88;;
47239;SDS011;32978;53.586;10.052;2023-02-07T22:51:13;34.55;;;27.90;;
47239;SDS011;32978;53.586;10.052;2023-02-07T22:56:09;34.55;;;28.73;;
47239;SDS011;32978;53.586;10.052;2023-02-07T23:01:06;35.05;;;27.50;;
47239;SDS011;32978;53.586;10.052;2023-02-07T23:06:21;31.00;;;25.23;;
47239;SDS011;32978;53.586;10.052;2023-02-07T23:11:19;29.35;;;24.95;;
47239;SDS011;32978;53.586;10.052;2023-02-07T23:16:19;33.22;;;27.60;;
47239;SDS011;32978;53.586;10.052;2023-02-07T23:21:18;30.00;;;25.58;;
47239;SDS011;32978;53.586;10.052;2023-02-07T23:26:16;31.60;;;25.25;;
47239;SDS011;32978;53.586;10.052;2023-02-07T23:31:16;34.72;;;24.83;;
47239;SDS011;32978;53.586;10.052;2023-02-07T23:36:15;30.00;;;23.40;;
47239;SDS011;32978;53.586;10.052;2023-02-07T23:41:13;32.08;;;24.63;;
47239;SDS011;32978;53.586;10.052;2023-02-07T23:46:10;29.33;;;23.67;;
47239;SDS011;32978;53.586;10.052;2023-02-07T23:51:09;28.40;;;24.38;;
47239;SDS011;32978;53.586;10.052;2023-02-07T23:56:06;29.38;;;23.98;;
